createdAt,value
2022-10-08T00:01:10.342Z,7.15
2022-10-08T00:03:40.850Z,7.16
2022-10-08T00:06:11.985Z,7.25
2022-10-08T00:08:41.947Z,7.27
2022-10-08T00:11:12.371Z,7.27
2022-10-08T00:13:41.462Z,7.27
2022-10-08T00:16:15.426Z,7.33
2022-10-08T00:18:44.319Z,7.39
2022-10-08T00:21:22.877Z,7.42
2022-10-08T00:23:50.946Z,7.43
2022-10-08T00:26:20.973Z,7.50
2022-10-08T00:28:47.944Z,7.52
2022-10-08T00:31:18.108Z,7.52
2022-10-08T00:33:44.867Z,7.49
2022-10-08T00:36:13.086Z,7.49
2022-10-08T00:38:40.716Z,7.46
2022-10-08T00:41:15.124Z,7.51
2022-10-08T00:43:51.720Z,7.51
2022-10-08T00:46:44.125Z,7.52
2022-10-08T00:49:13.575Z,7.46
2022-10-08T00:51:45.799Z,7.43
2022-10-08T00:54:13.577Z,7.45
2022-10-08T00:56:41.328Z,7.53
2022-10-08T00:59:10.659Z,7.54
2022-10-08T01:01:37.859Z,7.57
2022-10-08T01:04:07.328Z,7.66
2022-10-08T01:07:03.481Z,7.68
2022-10-08T01:09:32.903Z,7.78
2022-10-08T01:12:08.278Z,7.73
2022-10-08T01:14:58.212Z,7.73
2022-10-08T01:17:54.360Z,7.61
2022-10-08T01:21:05.171Z,7.61
2022-10-08T01:24:04.191Z,7.57
2022-10-08T01:26:39.993Z,7.58
2022-10-08T01:29:18.393Z,7.60
2022-10-08T01:31:50.736Z,7.52
2022-10-08T01:34:46.989Z,7.55
2022-10-08T01:37:36.566Z,7.50
2022-10-08T01:40:09.493Z,7.46
2022-10-08T01:42:40.014Z,7.47
2022-10-08T01:45:15.257Z,7.45
2022-10-08T01:47:44.354Z,7.41
2022-10-08T01:50:28.239Z,7.43
2022-10-08T01:53:02.986Z,7.38
2022-10-08T01:55:41.605Z,7.36
2022-10-08T01:58:16.013Z,7.32
2022-10-08T02:00:43.180Z,7.29
2022-10-08T02:03:13.447Z,7.24
2022-10-08T02:05:45.459Z,7.28
2022-10-08T02:08:12.195Z,7.19
2022-10-08T02:10:39.124Z,7.13
2022-10-08T02:13:06.031Z,7.11
2022-10-08T02:15:55.959Z,7.11
2022-10-08T02:18:41.958Z,7.13
2022-10-08T02:21:19.442Z,7.08
2022-10-08T02:24:26.885Z,7.03
2022-10-08T02:26:57.350Z,7.00
2022-10-08T02:29:32.874Z,6.93
2022-10-08T02:32:18.298Z,6.97
2022-10-08T02:34:59.952Z,7.03
2022-10-08T02:37:37.659Z,6.91
2022-10-08T02:40:10.053Z,6.80
2022-10-08T02:42:42.532Z,6.70
2022-10-08T02:45:22.268Z,6.66
2022-10-08T02:47:53.694Z,6.72
2022-10-08T02:50:23.389Z,6.74
2022-10-08T02:52:51.568Z,6.71
2022-10-08T02:55:29.530Z,6.72
2022-10-08T02:58:09.788Z,6.75
2022-10-08T03:00:43.249Z,6.64
2022-10-08T03:03:15.025Z,6.72
2022-10-08T03:05:42.862Z,6.64
2022-10-08T03:08:12.887Z,6.66
2022-10-08T03:10:41.376Z,6.61
2022-10-08T03:13:09.599Z,6.64
2022-10-08T03:15:38.064Z,6.71
2022-10-08T03:18:09.140Z,6.70
2022-10-08T03:20:55.885Z,6.70
2022-10-08T03:23:24.169Z,6.79
2022-10-08T03:25:50.817Z,6.87
2022-10-08T03:28:17.517Z,6.87
2022-10-08T03:30:44.239Z,6.86
2022-10-08T03:33:11.073Z,6.90
2022-10-08T03:35:37.758Z,6.95
2022-10-08T03:38:04.468Z,6.95
2022-10-08T03:40:31.063Z,6.93
2022-10-08T03:42:57.826Z,6.97
2022-10-08T03:45:24.466Z,6.92
2022-10-08T03:47:52.456Z,6.92
2022-10-08T03:50:21.222Z,6.87
2022-10-08T03:52:48.635Z,6.87
2022-10-08T03:55:15.582Z,6.80
2022-10-08T03:57:42.421Z,6.79
2022-10-08T04:00:10.116Z,6.86
2022-10-08T04:02:36.984Z,6.92
2022-10-08T04:05:03.881Z,6.91
2022-10-08T04:07:30.570Z,6.95
2022-10-08T04:09:57.223Z,7.03
2022-10-08T04:12:23.889Z,7.10
2022-10-08T04:14:50.535Z,7.12
2022-10-08T04:17:17.260Z,7.10
2022-10-08T04:19:43.913Z,7.13
2022-10-08T04:22:10.624Z,7.15
2022-10-08T04:24:37.261Z,7.18
2022-10-08T04:27:04.089Z,7.14
2022-10-08T04:29:30.781Z,7.10
2022-10-08T04:31:58.497Z,7.02
2022-10-08T04:34:25.179Z,7.04
2022-10-08T04:36:51.947Z,7.08
2022-10-08T04:39:18.591Z,6.98
2022-10-08T04:41:45.289Z,6.96
2022-10-08T04:44:11.964Z,7.01
2022-10-08T04:46:38.739Z,7.04
2022-10-08T04:49:05.410Z,7.04
2022-10-08T04:51:32.081Z,7.04
2022-10-08T04:53:58.789Z,7.00
2022-10-08T04:56:28.169Z,7.04
2022-10-08T04:58:55.619Z,6.92
2022-10-08T05:01:23.582Z,7.04
2022-10-08T05:03:53.135Z,7.06
2022-10-08T05:06:22.914Z,7.02
2022-10-08T05:08:50.051Z,7.04
2022-10-08T05:11:18.087Z,7.07
2022-10-08T05:13:50.345Z,7.06
2022-10-08T05:16:19.908Z,6.99
2022-10-08T05:18:47.725Z,7.02
2022-10-08T05:21:16.461Z,7.00
2022-10-08T05:23:43.884Z,6.96
2022-10-08T05:26:28.770Z,6.98
2022-10-08T05:29:08.146Z,6.99
2022-10-08T05:31:37.250Z,7.03
2022-10-08T05:34:04.413Z,7.05
2022-10-08T05:36:33.314Z,7.03
2022-10-08T05:39:01.381Z,7.06
2022-10-08T05:41:30.390Z,6.95
2022-10-08T05:43:58.841Z,6.95
2022-10-08T05:46:28.591Z,7.03
2022-10-08T05:48:57.571Z,7.12
2022-10-08T05:51:24.294Z,7.17
2022-10-08T05:53:52.607Z,7.29
2022-10-08T05:56:22.714Z,7.46
2022-10-08T05:58:50.343Z,7.40
2022-10-08T06:01:28.072Z,7.45
2022-10-08T06:04:05.685Z,7.47
2022-10-08T06:06:36.599Z,7.51
2022-10-08T06:09:03.967Z,7.44
2022-10-08T06:11:34.072Z,7.48
2022-10-08T06:14:02.053Z,7.44
2022-10-08T06:16:30.108Z,7.43
2022-10-08T06:18:57.007Z,7.45
2022-10-08T06:21:26.604Z,7.48
2022-10-08T06:23:56.295Z,7.47
2022-10-08T06:26:27.357Z,7.57
2022-10-08T06:28:56.482Z,7.61
2022-10-08T06:31:23.206Z,7.60
2022-10-08T06:33:50.493Z,7.60
2022-10-08T06:36:20.379Z,7.67
2022-10-08T06:38:51.168Z,7.70
2022-10-08T06:41:18.652Z,7.77
2022-10-08T06:43:45.848Z,7.87
2022-10-08T06:46:12.876Z,7.95
2022-10-08T06:48:51.417Z,8.05
2022-10-08T06:51:19.084Z,8.05
2022-10-08T06:53:52.391Z,8.12
2022-10-08T06:56:19.087Z,8.16
2022-10-08T06:58:47.532Z,8.12
2022-10-08T07:01:17.952Z,8.17
2022-10-08T07:03:58.239Z,8.18
2022-10-08T07:06:25.805Z,8.26
2022-10-08T07:08:54.911Z,8.27
2022-10-08T07:11:22.669Z,8.33
2022-10-08T07:13:49.348Z,8.41
2022-10-08T07:16:21.642Z,8.44
2022-10-08T07:18:50.620Z,8.48
2022-10-08T07:21:19.641Z,8.47
2022-10-08T07:23:46.561Z,8.49
2022-10-08T07:26:16.206Z,8.47
2022-10-08T07:28:48.758Z,8.56
2022-10-08T07:31:19.019Z,8.58
2022-10-08T07:33:45.868Z,8.55
2022-10-08T07:36:14.899Z,8.59
2022-10-08T07:38:41.831Z,8.57
2022-10-08T07:41:10.065Z,8.69
2022-10-08T07:43:37.689Z,8.75
2022-10-08T07:46:05.903Z,8.83
2022-10-08T07:48:34.275Z,8.76
2022-10-08T07:51:15.676Z,8.84
2022-10-08T07:53:43.631Z,8.93
2022-10-08T07:56:12.792Z,8.85
2022-10-08T07:58:40.417Z,8.84
2022-10-08T08:01:10.470Z,8.89
2022-10-08T08:03:37.595Z,8.91
2022-10-08T08:06:06.044Z,8.93
2022-10-08T08:08:34.963Z,9.00
2022-10-08T08:11:03.263Z,9.13
2022-10-08T08:13:36.797Z,9.12
2022-10-08T08:16:18.183Z,9.07
2022-10-08T08:18:48.246Z,9.17
2022-10-08T08:21:27.066Z,9.17
2022-10-08T08:23:56.464Z,9.18
2022-10-08T08:26:29.213Z,9.23
2022-10-08T08:28:58.791Z,9.25
2022-10-08T08:31:29.243Z,9.38
2022-10-08T08:33:59.853Z,9.48
2022-10-08T08:36:29.613Z,9.65
2022-10-08T08:38:57.027Z,9.70
2022-10-08T08:41:44.851Z,9.78
2022-10-08T08:44:18.693Z,9.83
2022-10-08T08:46:52.886Z,9.90
2022-10-08T08:49:44.218Z,9.99
2022-10-08T08:52:17.876Z,10.38
2022-10-08T08:54:49.606Z,10.67
2022-10-08T08:57:34.673Z,11.06
2022-10-08T09:00:19.840Z,11.86
2022-10-08T09:02:57.906Z,12.88
2022-10-08T09:05:26.734Z,13.07
2022-10-08T09:08:02.686Z,13.52
2022-10-08T09:10:42.887Z,13.59
2022-10-08T09:13:22.186Z,14.54
2022-10-08T09:15:48.918Z,15.02
2022-10-08T09:18:16.733Z,15.43
2022-10-08T09:20:44.444Z,15.58
2022-10-08T09:23:22.778Z,16.18
2022-10-08T09:25:55.890Z,15.53
2022-10-08T09:28:50.445Z,16.00
2022-10-08T09:31:32.576Z,15.35
2022-10-08T09:34:15.650Z,14.90
2022-10-08T09:36:52.531Z,15.12
2022-10-08T09:39:20.754Z,15.52
2022-10-08T09:42:04.569Z,15.58
2022-10-08T09:44:44.876Z,15.79
2022-10-08T09:47:16.465Z,15.46
2022-10-08T09:49:45.309Z,15.44
2022-10-08T09:52:17.607Z,15.13
2022-10-08T09:54:49.006Z,14.93
2022-10-08T09:57:21.403Z,15.08
2022-10-08T09:59:54.909Z,15.30
2022-10-08T10:02:35.384Z,15.82
2022-10-08T10:05:05.589Z,15.92
2022-10-08T10:07:42.075Z,15.84
2022-10-08T10:10:17.937Z,15.29
2022-10-08T10:12:50.284Z,15.15
2022-10-08T10:15:30.100Z,15.38
2022-10-08T10:18:02.248Z,15.48
2022-10-08T10:20:38.152Z,15.92
2022-10-08T10:23:30.798Z,16.08
2022-10-08T10:26:07.705Z,15.61
2022-10-08T10:28:52.971Z,15.95
2022-10-08T10:31:25.904Z,16.09
2022-10-08T10:34:04.341Z,15.90
2022-10-08T10:36:43.813Z,15.86
2022-10-08T10:39:29.246Z,15.35
2022-10-08T10:41:59.860Z,15.95
2022-10-08T10:44:35.426Z,15.67
2022-10-08T10:47:04.036Z,15.17
2022-10-08T10:49:40.540Z,15.27
2022-10-08T10:52:49.218Z,14.96
2022-10-08T10:55:21.894Z,14.47
2022-10-08T10:58:22.498Z,13.90
2022-10-08T11:01:07.619Z,13.31
2022-10-08T11:04:02.435Z,13.17
2022-10-08T11:06:48.388Z,13.14
2022-10-08T11:09:40.976Z,12.99
2022-10-08T11:12:30.925Z,12.99
2022-10-08T11:15:35.111Z,12.83
2022-10-08T11:18:25.407Z,13.07
2022-10-08T11:21:05.360Z,12.93
2022-10-08T11:23:54.719Z,13.01
2022-10-08T11:26:36.681Z,13.18
2022-10-08T11:29:15.756Z,13.18
2022-10-08T11:31:45.369Z,13.02
2022-10-08T11:34:36.116Z,13.05
2022-10-08T11:37:21.705Z,12.96
2022-10-08T11:39:54.378Z,12.81
2022-10-08T11:42:30.212Z,12.85
2022-10-08T11:45:33.745Z,12.86
2022-10-08T11:48:21.088Z,12.76
2022-10-08T11:50:47.937Z,12.93
2022-10-08T11:53:21.017Z,13.39
2022-10-08T11:55:57.287Z,13.82
2022-10-08T11:58:30.959Z,13.84
2022-10-08T12:01:08.983Z,13.98
2022-10-08T12:03:42.983Z,13.95
2022-10-08T12:06:34.650Z,13.98
2022-10-08T12:09:02.859Z,14.07
2022-10-08T12:11:32.488Z,14.00
2022-10-08T12:14:11.474Z,14.12
2022-10-08T12:16:47.429Z,14.35
2022-10-08T12:19:32.939Z,14.20
2022-10-08T12:22:03.486Z,14.25
2022-10-08T12:24:39.340Z,14.29
2022-10-08T12:27:18.432Z,14.25
2022-10-08T12:29:58.850Z,14.27
2022-10-08T12:32:28.249Z,14.01
2022-10-08T12:34:56.185Z,14.09
2022-10-08T12:37:49.720Z,14.13
2022-10-08T12:40:31.479Z,14.01
2022-10-08T12:43:12.055Z,13.93
2022-10-08T12:45:54.771Z,14.08
2022-10-08T12:48:49.316Z,14.11
2022-10-08T12:51:45.532Z,13.97
2022-10-08T12:54:31.574Z,13.91
2022-10-08T12:56:59.779Z,14.00
2022-10-08T12:59:32.049Z,13.92
2022-10-08T13:01:58.947Z,14.07
2022-10-08T13:04:29.958Z,14.01
2022-10-08T13:06:56.828Z,14.02
2022-10-08T13:09:27.764Z,14.07
2022-10-08T13:12:02.118Z,14.05
2022-10-08T13:14:36.080Z,14.05
2022-10-08T13:17:03.935Z,14.13
2022-10-08T13:19:38.970Z,13.91
2022-10-08T13:22:26.121Z,13.94
2022-10-08T13:24:52.985Z,14.09
2022-10-08T13:27:27.225Z,14.07
2022-10-08T13:29:55.543Z,14.15
2022-10-08T13:32:25.887Z,14.04
2022-10-08T13:34:58.818Z,14.00
2022-10-08T13:37:36.277Z,14.14
2022-10-08T13:40:12.498Z,13.94
2022-10-08T13:42:49.001Z,14.04
2022-10-08T13:45:27.773Z,14.15
2022-10-08T13:47:55.090Z,14.09
2022-10-08T13:50:23.049Z,14.03
2022-10-08T13:52:54.695Z,14.05
2022-10-08T13:55:26.779Z,13.98
2022-10-08T13:57:54.638Z,14.00
2022-10-08T14:00:22.649Z,13.86
2022-10-08T14:02:51.746Z,13.82
2022-10-08T14:05:19.726Z,13.91
2022-10-08T14:07:50.903Z,13.94
2022-10-08T14:10:19.027Z,13.81
2022-10-08T14:12:46.016Z,13.87
2022-10-08T14:15:14.128Z,13.73
2022-10-08T14:17:40.907Z,13.55
2022-10-08T14:20:09.313Z,13.62
2022-10-08T14:22:39.225Z,13.56
2022-10-08T14:25:17.943Z,13.51
2022-10-08T14:27:45.269Z,13.46
2022-10-08T14:30:13.839Z,13.48
2022-10-08T14:32:40.892Z,13.44
2022-10-08T14:35:08.156Z,13.43
2022-10-08T14:37:35.479Z,13.49
2022-10-08T14:40:03.971Z,13.41
2022-10-08T14:42:30.756Z,13.46
2022-10-08T14:44:57.464Z,13.41
2022-10-08T14:47:24.270Z,13.41
2022-10-08T14:49:51.009Z,13.36
2022-10-08T14:52:17.870Z,13.36
2022-10-08T14:54:44.558Z,13.45
2022-10-08T14:57:11.259Z,13.48
2022-10-08T14:59:40.231Z,13.45
2022-10-08T15:02:10.468Z,13.47
2022-10-08T15:04:37.350Z,13.51
2022-10-08T15:07:04.406Z,13.48
2022-10-08T15:09:31.550Z,13.50
2022-10-08T15:11:58.472Z,13.49
2022-10-08T15:14:58.688Z,13.38
2022-10-08T15:17:25.502Z,13.46
2022-10-08T15:19:53.002Z,13.53
2022-10-08T15:22:19.663Z,13.53
2022-10-08T15:24:46.313Z,13.59
2022-10-08T15:27:15.248Z,13.45
2022-10-08T15:29:45.235Z,13.44
2022-10-08T15:32:12.200Z,13.45
2022-10-08T15:34:39.042Z,13.43
2022-10-08T15:37:08.008Z,13.45
2022-10-08T15:39:36.035Z,13.44
2022-10-08T15:42:02.991Z,13.43
2022-10-08T15:44:31.225Z,13.44
2022-10-08T15:47:06.688Z,13.45
2022-10-08T15:49:37.726Z,13.36
2022-10-08T15:52:09.398Z,13.41
2022-10-08T15:54:40.516Z,13.32
2022-10-08T15:57:09.562Z,13.34
2022-10-08T15:59:36.665Z,13.33
2022-10-08T16:02:04.441Z,13.29
2022-10-08T16:04:31.276Z,13.40
2022-10-08T16:06:58.489Z,13.20
2022-10-08T16:09:25.499Z,13.12
2022-10-08T16:11:52.209Z,13.03
2022-10-08T16:14:24.662Z,13.02
2022-10-08T16:16:51.991Z,12.95
2022-10-08T16:19:21.478Z,12.99
2022-10-08T16:21:50.109Z,12.84
2022-10-08T16:24:17.512Z,12.85
2022-10-08T16:26:45.225Z,12.79
2022-10-08T16:29:13.751Z,12.73
2022-10-08T16:31:42.247Z,12.69
2022-10-08T16:34:14.348Z,12.63
2022-10-08T16:36:41.687Z,12.57
2022-10-08T16:39:09.026Z,12.53
2022-10-08T16:41:37.441Z,12.50
2022-10-08T16:44:12.775Z,12.50
2022-10-08T16:46:43.124Z,12.48
2022-10-08T16:49:22.696Z,12.47
2022-10-08T16:51:52.900Z,12.48
2022-10-08T16:54:19.747Z,12.50
2022-10-08T16:56:46.901Z,12.50
2022-10-08T16:59:19.410Z,12.46
2022-10-08T17:01:49.588Z,12.39
2022-10-08T17:04:17.503Z,12.37
2022-10-08T17:06:44.334Z,12.35
2022-10-08T17:09:11.679Z,12.28
2022-10-08T17:11:39.275Z,12.22
2022-10-08T17:14:07.711Z,12.11
2022-10-08T17:16:35.967Z,12.01
2022-10-08T17:19:04.374Z,11.93
2022-10-08T17:21:34.748Z,11.90
2022-10-08T17:24:02.842Z,11.90
2022-10-08T17:26:30.926Z,11.81
2022-10-08T17:29:01.647Z,11.74
2022-10-08T17:31:31.907Z,11.63
2022-10-08T17:34:02.801Z,11.60
2022-10-08T17:36:35.688Z,11.59
2022-10-08T17:39:05.431Z,11.55
2022-10-08T17:41:37.021Z,11.49
2022-10-08T17:44:06.934Z,11.45
2022-10-08T17:46:36.437Z,11.44
2022-10-08T17:49:03.646Z,11.42
2022-10-08T17:51:31.323Z,11.39
2022-10-08T17:54:04.212Z,11.37
2022-10-08T17:56:31.812Z,11.36
2022-10-08T17:58:58.958Z,11.29
2022-10-08T18:01:28.354Z,11.27
2022-10-08T18:04:03.589Z,11.17
2022-10-08T18:06:31.748Z,11.09
2022-10-08T18:09:01.635Z,10.96
2022-10-08T18:11:30.349Z,10.87
2022-10-08T18:13:57.117Z,10.82
2022-10-08T18:16:25.300Z,10.81
2022-10-08T18:18:52.289Z,10.71
2022-10-08T18:21:20.176Z,10.71
2022-10-08T18:23:48.960Z,10.67
2022-10-08T18:26:24.252Z,10.68
2022-10-08T18:28:55.807Z,10.68
2022-10-08T18:31:28.699Z,10.61
2022-10-08T18:34:02.629Z,10.63
2022-10-08T18:36:31.942Z,10.56
2022-10-08T18:38:59.807Z,10.58
2022-10-08T18:41:29.718Z,10.51
2022-10-08T18:43:59.402Z,10.47
2022-10-08T18:46:27.749Z,10.50
2022-10-08T18:48:55.156Z,10.47
2022-10-08T18:51:24.719Z,10.43
2022-10-08T18:53:52.907Z,10.35
2022-10-08T18:56:22.033Z,10.30
2022-10-08T18:58:50.648Z,10.28
2022-10-08T19:01:28.307Z,10.28
2022-10-08T19:03:58.011Z,10.29
2022-10-08T19:06:27.822Z,10.25
2022-10-08T19:08:55.933Z,10.27
2022-10-08T19:11:30.187Z,10.26
2022-10-08T19:13:56.859Z,10.27
2022-10-08T19:16:23.717Z,10.21
2022-10-08T19:18:53.477Z,10.16
2022-10-08T19:21:20.767Z,10.14
2022-10-08T19:23:47.731Z,10.18
2022-10-08T19:26:15.187Z,10.12
2022-10-08T19:28:50.104Z,10.09
2022-10-08T19:31:24.239Z,10.07
2022-10-08T19:33:56.101Z,10.06
2022-10-08T19:36:24.900Z,10.01
2022-10-08T19:38:53.193Z,9.94
2022-10-08T19:41:20.664Z,9.90
2022-10-08T19:43:47.825Z,9.81
2022-10-08T19:46:14.738Z,9.77
2022-10-08T19:48:41.542Z,9.73
2022-10-08T19:51:10.954Z,9.67
2022-10-08T19:53:38.617Z,9.57
2022-10-08T19:56:10.021Z,9.60
2022-10-08T19:58:37.403Z,9.67
2022-10-08T20:01:09.778Z,9.59
2022-10-08T20:03:37.136Z,9.57
2022-10-08T20:06:09.494Z,9.55
2022-10-08T20:08:36.947Z,9.52
2022-10-08T20:11:08.794Z,9.52
2022-10-08T20:13:36.210Z,9.47
2022-10-08T20:16:12.984Z,9.48
2022-10-08T20:18:39.866Z,9.48
2022-10-08T20:21:09.690Z,9.49
2022-10-08T20:23:37.899Z,9.44
2022-10-08T20:26:26.106Z,9.46
2022-10-08T20:29:04.245Z,9.45
2022-10-08T20:31:33.206Z,9.40
2022-10-08T20:34:08.493Z,9.43
2022-10-08T20:36:35.302Z,9.41
2022-10-08T20:39:02.087Z,9.40
2022-10-08T20:41:31.100Z,9.39
2022-10-08T20:44:03.210Z,9.32
2022-10-08T20:46:31.272Z,9.36
2022-10-08T20:48:58.525Z,9.39
2022-10-08T20:51:27.071Z,9.43
2022-10-08T20:53:53.660Z,9.45
2022-10-08T20:56:21.966Z,9.45
2022-10-08T20:58:49.630Z,9.45
2022-10-08T21:01:19.811Z,9.42
2022-10-08T21:03:47.484Z,9.38
2022-10-08T21:06:20.161Z,9.36
2022-10-08T21:08:48.957Z,9.33
2022-10-08T21:11:21.436Z,9.28
2022-10-08T21:13:48.473Z,9.27
2022-10-08T21:16:21.634Z,9.23
2022-10-08T21:18:49.604Z,9.18
2022-10-08T21:21:16.794Z,9.13
2022-10-08T21:23:43.885Z,9.13
2022-10-08T21:26:19.294Z,9.11
2022-10-08T21:28:47.987Z,9.10
2022-10-08T21:31:15.961Z,9.07
2022-10-08T21:33:45.246Z,9.04
2022-10-08T21:36:14.972Z,9.04
2022-10-08T21:38:42.595Z,9.01
2022-10-08T21:41:12.506Z,9.01
2022-10-08T21:43:50.899Z,9.03
2022-10-08T21:46:23.369Z,8.99
2022-10-08T21:48:58.729Z,9.03
2022-10-08T21:51:26.641Z,9.10
2022-10-08T21:53:56.070Z,9.09
2022-10-08T21:56:25.806Z,9.08
2022-10-08T21:58:58.264Z,9.10
2022-10-08T22:01:29.752Z,9.06
2022-10-08T22:04:11.005Z,9.05
2022-10-08T22:06:41.251Z,9.01
2022-10-08T22:09:12.246Z,9.01
2022-10-08T22:11:39.645Z,8.97
2022-10-08T22:14:07.040Z,8.92
2022-10-08T22:16:34.187Z,8.91
2022-10-08T22:19:01.268Z,8.96
2022-10-08T22:24:17.861Z,8.93
2022-10-08T22:26:50.523Z,8.88
2022-10-08T22:29:17.362Z,8.87
2022-10-08T22:31:44.404Z,8.82
2022-10-08T22:34:11.271Z,8.78
2022-10-08T22:36:44.545Z,8.81
2022-10-08T22:39:11.857Z,8.85
2022-10-08T22:41:38.679Z,8.89
2022-10-08T22:44:05.870Z,8.90
2022-10-08T22:46:41.171Z,8.93
2022-10-08T22:49:10.436Z,8.88
2022-10-08T22:51:38.982Z,8.87
2022-10-08T22:54:05.785Z,8.86
2022-10-08T22:56:32.822Z,8.83
2022-10-08T22:59:00.525Z,8.75
2022-10-08T23:01:29.422Z,8.72
2022-10-08T23:03:56.653Z,8.69
2022-10-08T23:06:25.988Z,8.69
2022-10-08T23:09:01.598Z,8.69
2022-10-08T23:11:29.538Z,8.69
2022-10-08T23:13:57.964Z,8.68
2022-10-08T23:16:26.430Z,8.68
2022-10-08T23:18:56.619Z,8.63
2022-10-08T23:21:24.016Z,8.63
2022-10-08T23:23:54.437Z,8.60
2022-10-08T23:26:24.674Z,8.62
2022-10-08T23:28:53.278Z,8.60
2022-10-08T23:31:22.887Z,8.59
2022-10-08T23:33:51.667Z,8.64
2022-10-08T23:36:21.571Z,8.64
2022-10-08T23:38:48.681Z,8.57
2022-10-08T23:41:15.441Z,8.55
2022-10-08T23:43:44.183Z,8.56
2022-10-08T23:46:12.534Z,8.55
2022-10-08T23:48:39.748Z,8.55
2022-10-08T23:51:07.735Z,8.53
2022-10-08T23:53:34.993Z,8.53
2022-10-08T23:56:02.416Z,8.56
2022-10-08T23:58:29.185Z,8.56
